createdAt,value
2018-04-29T00:01:41.988Z,17.90
2018-04-29T00:04:11.055Z,18.00
2018-04-29T00:06:40.915Z,18.10
2018-04-29T00:09:09.869Z,17.90
2018-04-29T00:11:38.817Z,17.70
2018-04-29T00:14:08.492Z,17.60
2018-04-29T00:16:38.913Z,17.70
2018-04-29T00:19:07.822Z,17.70
2018-04-29T00:21:36.924Z,17.70
2018-04-29T00:24:06.855Z,18.00
2018-04-29T00:26:35.848Z,17.90
2018-04-29T00:29:06.608Z,17.90
2018-04-29T00:31:35.642Z,17.90
2018-04-29T00:34:04.540Z,17.90
2018-04-29T00:36:34.034Z,17.90
2018-04-29T00:39:02.989Z,17.80
2018-04-29T00:41:31.887Z,17.70
2018-04-29T00:44:01.041Z,17.80
2018-04-29T00:46:30.726Z,17.70
2018-04-29T00:48:59.795Z,17.70
2018-04-29T00:54:35.667Z,17.50
2018-04-29T00:57:04.646Z,17.30
2018-04-29T00:59:33.796Z,17.40
2018-04-29T01:02:02.802Z,17.50
2018-04-29T01:04:32.569Z,17.50
2018-04-29T01:07:01.578Z,17.50
2018-04-29T01:09:30.592Z,17.60
2018-04-29T01:12:00.488Z,17.70
2018-04-29T01:14:29.432Z,17.70
2018-04-29T01:16:58.310Z,17.60
2018-04-29T01:19:28.065Z,17.60
2018-04-29T01:21:56.975Z,17.60
2018-04-29T01:24:25.884Z,17.70
2018-04-29T01:26:54.770Z,17.70
2018-04-29T01:29:23.810Z,17.60
2018-04-29T01:31:52.732Z,17.50
2018-04-29T01:34:21.636Z,17.50
2018-04-29T01:36:50.616Z,17.50
2018-04-29T01:39:19.572Z,17.50
2018-04-29T01:41:48.485Z,17.40
2018-04-29T01:44:17.407Z,17.40
2018-04-29T01:46:46.427Z,17.40
2018-04-29T01:49:16.116Z,17.50
2018-04-29T01:51:45.009Z,17.50
2018-04-29T01:54:13.923Z,17.50
2018-04-29T01:56:42.936Z,17.20
2018-04-29T01:59:11.806Z,17.30
2018-04-29T02:01:40.700Z,17.20
2018-04-29T02:04:09.702Z,17.20
2018-04-29T02:06:38.688Z,17.20
2018-04-29T02:09:07.668Z,17.20
2018-04-29T02:11:37.373Z,17.10
2018-04-29T02:14:06.276Z,17.10
2018-04-29T02:16:35.940Z,17.20
2018-04-29T02:19:04.983Z,17.20
2018-04-29T02:21:33.875Z,17.20
2018-04-29T02:24:02.810Z,17.20
2018-04-29T02:26:31.919Z,17.10
2018-04-29T02:29:00.828Z,16.90
2018-04-29T02:31:30.503Z,16.90
2018-04-29T02:33:59.404Z,16.90
2018-04-29T02:36:28.325Z,17.10
2018-04-29T02:38:57.209Z,17.10
2018-04-29T02:41:26.891Z,16.90
2018-04-29T02:43:55.758Z,16.80
2018-04-29T02:46:24.676Z,16.80
2018-04-29T02:48:53.580Z,16.80
2018-04-29T02:51:22.613Z,16.70
2018-04-29T02:53:51.529Z,16.70
2018-04-29T02:56:20.464Z,16.80
2018-04-29T02:58:49.633Z,16.60
2018-04-29T03:01:18.570Z,16.60
2018-04-29T03:03:47.729Z,16.60
2018-04-29T03:06:16.712Z,16.60
2018-04-29T03:08:45.701Z,16.50
2018-04-29T03:11:14.599Z,16.40
2018-04-29T03:13:43.649Z,16.50
2018-04-29T03:16:12.527Z,16.40
2018-04-29T03:18:41.581Z,16.50
2018-04-29T03:21:10.488Z,16.50
2018-04-29T03:23:39.414Z,16.50
2018-04-29T03:26:08.302Z,16.50
2018-04-29T03:28:37.171Z,16.50
2018-04-29T03:31:06.851Z,16.40
2018-04-29T03:33:36.019Z,16.40
2018-04-29T03:36:04.936Z,16.40
2018-04-29T03:38:34.408Z,16.50
2018-04-29T03:41:03.402Z,16.50
2018-04-29T03:43:32.415Z,16.40
2018-04-29T03:46:01.533Z,16.30
2018-04-29T03:48:30.582Z,16.40
2018-04-29T03:50:59.645Z,16.50
2018-04-29T03:53:28.556Z,16.30
2018-04-29T03:55:57.974Z,16.30
2018-04-29T03:58:45.355Z,16.50
2018-04-29T04:01:32.968Z,16.60
2018-04-29T04:04:03.758Z,16.50
2018-04-29T04:06:32.953Z,16.30
2018-04-29T04:09:01.882Z,16.30
2018-04-29T04:11:30.780Z,16.50
2018-04-29T04:13:59.718Z,16.60
2018-04-29T04:16:28.673Z,16.60
2018-04-29T04:18:57.564Z,16.60
2018-04-29T04:21:26.501Z,16.80
2018-04-29T04:23:55.409Z,16.80
2018-04-29T04:26:24.533Z,16.90
2018-04-29T04:28:54.052Z,17.10
2018-04-29T04:31:23.088Z,17.30
2018-04-29T04:33:52.261Z,17.40
2018-04-29T04:36:21.213Z,17.30
2018-04-29T04:38:51.465Z,17.30
2018-04-29T04:41:21.295Z,17.40
2018-04-29T04:43:51.010Z,17.50
2018-04-29T04:46:19.960Z,17.40
2018-04-29T04:48:48.916Z,17.60
2018-04-29T04:51:17.974Z,17.70
2018-04-29T04:53:46.925Z,17.80
2018-04-29T04:56:15.934Z,17.90
2018-04-29T04:58:45.020Z,17.80
2018-04-29T05:01:13.988Z,17.70
2018-04-29T05:03:42.912Z,17.70
2018-04-29T05:06:11.854Z,17.90
2018-04-29T05:08:44.332Z,18.00
2018-04-29T05:11:13.424Z,18.20
2018-04-29T05:13:43.223Z,18.50
2018-04-29T05:16:12.104Z,18.50
2018-04-29T05:18:41.028Z,18.70
2018-04-29T05:21:10.023Z,18.90
2018-04-29T05:23:38.936Z,18.90
2018-04-29T05:26:08.724Z,19.30
2018-04-29T05:28:37.741Z,19.30
2018-04-29T05:31:06.662Z,19.20
2018-04-29T05:33:36.344Z,19.20
2018-04-29T05:36:05.285Z,19.20
2018-04-29T05:38:34.189Z,19.30
2018-04-29T05:41:03.205Z,19.50
2018-04-29T05:43:32.120Z,19.70
2018-04-29T05:46:01.051Z,19.70
2018-04-29T05:48:29.994Z,20.00
2018-04-29T05:50:59.259Z,20.30
2018-04-29T05:53:28.465Z,20.30
2018-04-29T05:55:57.615Z,20.50
2018-04-29T05:58:27.302Z,20.40
2018-04-29T06:00:56.357Z,20.40
2018-04-29T06:03:25.259Z,20.60
2018-04-29T06:05:54.744Z,20.60
2018-04-29T06:08:23.749Z,20.80
2018-04-29T06:10:52.742Z,20.90
2018-04-29T06:13:21.674Z,21.30
2018-04-29T06:15:50.854Z,21.50
2018-04-29T06:18:19.924Z,21.20
2018-04-29T06:20:49.258Z,21.30
2018-04-29T06:23:22.469Z,22.00
2018-04-29T06:25:51.674Z,22.00
2018-04-29T06:28:20.712Z,21.90
2018-04-29T06:30:49.969Z,22.10
2018-04-29T06:33:19.696Z,23.00
2018-04-29T06:35:48.752Z,23.00
2018-04-29T06:38:18.604Z,22.70
2018-04-29T06:40:47.657Z,22.70
2018-04-29T06:43:17.620Z,22.60
2018-04-29T06:45:46.697Z,22.60
2018-04-29T06:48:16.380Z,23.00
2018-04-29T06:50:45.503Z,22.90
2018-04-29T06:53:14.898Z,23.40
2018-04-29T06:55:44.544Z,23.60
2018-04-29T06:58:13.487Z,23.60
2018-04-29T07:00:42.455Z,22.10
2018-04-29T07:03:11.385Z,22.10
2018-04-29T07:05:41.100Z,22.80
2018-04-29T07:08:10.125Z,22.80
2018-04-29T07:10:38.971Z,23.10
2018-04-29T07:13:08.627Z,23.80
2018-04-29T07:15:37.583Z,23.80
2018-04-29T07:18:06.557Z,24.10
2018-04-29T07:20:36.411Z,24.40
2018-04-29T07:23:05.376Z,24.40
2018-04-29T07:25:34.312Z,24.90
2018-04-29T07:28:03.229Z,24.90
2018-04-29T07:30:32.893Z,25.40
2018-04-29T07:33:01.788Z,25.40
2018-04-29T07:35:30.676Z,24.80
2018-04-29T07:37:59.604Z,25.30
2018-04-29T07:40:28.713Z,25.40
2018-04-29T07:42:57.613Z,25.80
2018-04-29T07:45:26.776Z,26.00
2018-04-29T07:47:55.843Z,26.20
2018-04-29T07:50:24.725Z,26.20
2018-04-29T07:52:53.651Z,26.50
2018-04-29T07:55:22.969Z,26.30
2018-04-29T07:57:52.036Z,26.40
2018-04-29T08:00:20.929Z,26.50
2018-04-29T08:02:49.947Z,26.40
2018-04-29T08:05:19.024Z,26.70
2018-04-29T08:07:48.006Z,26.40
2018-04-29T08:10:16.912Z,26.40
2018-04-29T08:12:45.979Z,26.80
2018-04-29T08:15:14.937Z,27.20
2018-04-29T08:17:44.025Z,27.80
2018-04-29T08:20:13.834Z,27.70
2018-04-29T08:22:42.802Z,27.60
2018-04-29T08:25:11.699Z,27.30
2018-04-29T08:27:40.604Z,27.10
2018-04-29T08:30:10.672Z,26.80
2018-04-29T08:32:39.548Z,26.80
2018-04-29T08:35:08.584Z,27.30
2018-04-29T08:37:37.744Z,27.10
2018-04-29T08:40:06.905Z,27.60
2018-04-29T08:42:35.799Z,28.00
2018-04-29T08:45:04.784Z,27.40
2018-04-29T08:47:34.437Z,28.60
2018-04-29T08:50:03.455Z,28.60
2018-04-29T08:52:32.409Z,28.40
2018-04-29T08:55:02.201Z,28.50
2018-04-29T08:57:31.026Z,28.40
2018-04-29T09:00:00.224Z,28.60
2018-04-29T09:02:29.126Z,28.50
2018-04-29T09:04:58.203Z,28.20
2018-04-29T09:07:27.107Z,28.20
2018-04-29T09:09:56.031Z,28.20
2018-04-29T09:12:24.928Z,28.00
2018-04-29T09:14:54.008Z,28.80
2018-04-29T09:17:22.885Z,28.90
2018-04-29T09:19:51.939Z,28.80
2018-04-29T09:22:20.937Z,28.90
2018-04-29T09:24:49.826Z,29.10
2018-04-29T09:27:18.812Z,29.70
2018-04-29T09:29:47.897Z,29.60
2018-04-29T09:32:17.663Z,29.00
2018-04-29T09:34:46.568Z,28.90
2018-04-29T09:37:15.672Z,28.80
2018-04-29T09:39:44.668Z,29.00
2018-04-29T09:42:14.097Z,28.80
2018-04-29T09:44:44.143Z,29.10
2018-04-29T09:47:13.136Z,29.10
2018-04-29T09:49:42.112Z,29.00
2018-04-29T09:52:11.077Z,28.80
2018-04-29T09:54:40.037Z,29.10
2018-04-29T09:57:08.943Z,29.50
2018-04-29T09:59:37.847Z,29.00
2018-04-29T10:02:11.910Z,29.00
2018-04-29T10:04:40.894Z,28.70
2018-04-29T10:07:10.372Z,28.60
2018-04-29T10:09:39.427Z,29.10
2018-04-29T10:12:08.359Z,29.10
2018-04-29T10:14:38.068Z,28.90
2018-04-29T10:17:07.775Z,28.50
2018-04-29T10:19:37.539Z,28.90
2018-04-29T10:22:06.540Z,28.80
2018-04-29T10:24:35.526Z,29.00
2018-04-29T10:27:05.152Z,28.70
2018-04-29T10:29:34.076Z,28.70
2018-04-29T10:32:03.773Z,28.80
2018-04-29T10:34:33.453Z,28.70
2018-04-29T10:37:02.657Z,28.60
2018-04-29T10:39:31.808Z,28.60
2018-04-29T10:42:00.764Z,28.50
2018-04-29T10:44:30.523Z,29.20
2018-04-29T10:46:59.464Z,29.20
2018-04-29T10:49:28.427Z,29.10
2018-04-29T10:51:57.419Z,29.50
2018-04-29T10:54:26.325Z,29.20
2018-04-29T10:56:55.224Z,29.10
2018-04-29T10:59:24.331Z,28.90
2018-04-29T11:01:54.036Z,28.40
2018-04-29T11:04:23.034Z,28.40
2018-04-29T11:06:52.125Z,28.40
2018-04-29T11:09:21.777Z,28.80
2018-04-29T11:11:50.746Z,28.80
2018-04-29T11:14:19.727Z,28.70
2018-04-29T11:16:49.491Z,28.60
2018-04-29T11:19:18.446Z,28.60
2018-04-29T11:21:47.565Z,28.80
2018-04-29T11:24:16.642Z,28.50
2018-04-29T11:26:45.588Z,28.30
2018-04-29T11:29:15.599Z,28.30
2018-04-29T11:31:45.414Z,28.10
2018-04-29T11:34:14.427Z,28.10
2018-04-29T11:36:43.428Z,28.10
2018-04-29T11:39:13.103Z,28.40
2018-04-29T11:41:42.213Z,28.30
2018-04-29T11:44:11.158Z,28.30
2018-04-29T11:46:40.060Z,28.30
2018-04-29T11:49:09.850Z,27.80
2018-04-29T11:51:38.756Z,27.70
2018-04-29T11:54:08.060Z,27.60
2018-04-29T11:56:36.986Z,27.70
2018-04-29T11:59:05.933Z,27.70
2018-04-29T12:01:34.872Z,27.60
2018-04-29T12:04:03.803Z,27.60
2018-04-29T12:06:32.720Z,27.80
2018-04-29T12:09:01.693Z,27.80
2018-04-29T12:11:30.658Z,28.00
2018-04-29T12:14:00.500Z,27.90
2018-04-29T12:16:29.460Z,27.90
2018-04-29T12:18:58.448Z,27.70
2018-04-29T12:21:28.181Z,27.60
2018-04-29T12:23:57.164Z,27.60
2018-04-29T12:26:26.181Z,27.40
2018-04-29T12:28:55.076Z,27.40
2018-04-29T12:31:24.074Z,27.30
2018-04-29T12:33:53.213Z,27.30
2018-04-29T12:36:22.448Z,27.50
2018-04-29T12:38:51.437Z,27.30
2018-04-29T12:41:20.415Z,27.30
2018-04-29T12:43:50.246Z,27.40
2018-04-29T12:46:19.258Z,27.40
2018-04-29T12:48:48.380Z,27.50
2018-04-29T12:51:17.413Z,27.50
2018-04-29T12:53:47.202Z,27.40
2018-04-29T12:56:16.153Z,27.40
2018-04-29T12:58:45.107Z,27.50
2018-04-29T13:01:14.749Z,27.60
2018-04-29T13:03:43.662Z,27.60
2018-04-29T13:06:12.684Z,27.60
2018-04-29T13:08:41.700Z,27.70
2018-04-29T13:11:11.370Z,27.60
2018-04-29T13:13:40.480Z,27.60
2018-04-29T13:16:09.466Z,27.70
2018-04-29T13:18:38.344Z,27.80
2018-04-29T13:21:07.251Z,27.90
2018-04-29T13:23:36.308Z,27.60
2018-04-29T13:26:05.185Z,27.50
2018-04-29T13:28:34.179Z,27.40
2018-04-29T13:31:03.428Z,27.50
2018-04-29T13:33:32.305Z,27.60
2018-04-29T13:36:01.384Z,27.60
2018-04-29T13:38:30.460Z,27.70
2018-04-29T13:40:59.514Z,27.70
2018-04-29T13:43:28.423Z,27.80
2018-04-29T13:45:57.538Z,27.80
2018-04-29T13:48:27.286Z,27.70
2018-04-29T13:50:56.192Z,27.70
2018-04-29T13:53:25.267Z,27.70
2018-04-29T13:55:54.280Z,27.60
2018-04-29T13:58:23.154Z,27.60
2018-04-29T14:00:52.340Z,27.70
2018-04-29T14:03:21.236Z,27.70
2018-04-29T14:05:50.512Z,27.60
2018-04-29T14:08:19.577Z,27.70
2018-04-29T14:10:48.660Z,27.70
2018-04-29T14:13:17.775Z,27.80
2018-04-29T14:15:46.691Z,27.80
2018-04-29T14:18:15.569Z,27.80
2018-04-29T14:20:44.450Z,27.70
2018-04-29T14:23:13.424Z,27.60
2018-04-29T14:25:43.116Z,27.60
2018-04-29T14:28:12.050Z,27.60
2018-04-29T14:30:41.367Z,27.70
2018-04-29T14:33:10.459Z,27.70
2018-04-29T14:35:39.429Z,27.80
2018-04-29T14:38:12.305Z,27.70
2018-04-29T14:40:42.133Z,27.60
2018-04-29T14:43:11.097Z,27.60
2018-04-29T14:45:40.016Z,27.60
2018-04-29T14:48:08.995Z,27.60
2018-04-29T14:50:38.151Z,27.60
2018-04-29T14:53:08.607Z,27.60
2018-04-29T14:55:38.280Z,27.60
2018-04-29T14:58:07.294Z,27.60
2018-04-29T15:00:36.367Z,27.60
2018-04-29T15:03:05.269Z,27.50
2018-04-29T15:05:34.368Z,27.50
2018-04-29T15:08:03.287Z,27.50
2018-04-29T15:10:33.480Z,27.50
2018-04-29T15:13:02.499Z,27.50
2018-04-29T15:15:31.436Z,27.50
2018-04-29T15:18:00.342Z,27.50
2018-04-29T15:20:30.134Z,27.50
2018-04-29T15:22:59.199Z,27.50
2018-04-29T15:25:28.368Z,27.40
2018-04-29T15:27:57.239Z,27.40
2018-04-29T15:30:26.253Z,27.40
2018-04-29T15:32:55.136Z,27.40
2018-04-29T15:35:24.019Z,27.40
2018-04-29T15:37:52.927Z,27.40
2018-04-29T15:40:21.970Z,27.40
2018-04-29T15:42:50.897Z,27.40
2018-04-29T15:45:20.560Z,27.40
2018-04-29T15:47:49.723Z,27.30
2018-04-29T15:50:19.391Z,27.40
2018-04-29T15:52:48.329Z,27.40
2018-04-29T15:55:18.263Z,27.30
2018-04-29T15:57:47.429Z,27.30
2018-04-29T16:00:17.129Z,27.30
2018-04-29T16:02:46.198Z,27.30
2018-04-29T16:05:15.278Z,27.30
2018-04-29T16:07:44.218Z,27.30
2018-04-29T16:10:13.280Z,27.20
2018-04-29T16:12:42.196Z,27.20
2018-04-29T16:15:11.347Z,27.20
2018-04-29T16:17:40.228Z,27.10
2018-04-29T16:20:09.148Z,27.10
2018-04-29T16:22:38.771Z,27.10
2018-04-29T16:25:07.779Z,27.10
2018-04-29T16:27:36.648Z,27.10
2018-04-29T16:30:05.570Z,27.00
2018-04-29T16:32:35.620Z,26.90
2018-04-29T16:35:04.509Z,27.00
2018-04-29T16:37:34.220Z,27.00
2018-04-29T16:40:03.218Z,26.90
2018-04-29T16:42:32.204Z,26.90
2018-04-29T16:45:01.259Z,26.80
2018-04-29T16:47:31.080Z,26.80
2018-04-29T16:50:00.017Z,26.80
2018-04-29T16:52:28.965Z,26.70
2018-04-29T16:54:58.619Z,26.70
2018-04-29T16:57:27.768Z,26.70
2018-04-29T16:59:57.500Z,26.50
2018-04-29T17:02:26.385Z,26.50
2018-04-29T17:04:55.427Z,26.50
2018-04-29T17:07:24.347Z,26.50
2018-04-29T17:09:53.263Z,26.40
2018-04-29T17:12:22.252Z,26.40
2018-04-29T17:14:51.207Z,26.30
2018-04-29T17:17:20.905Z,26.20
2018-04-29T17:19:49.799Z,26.20
2018-04-29T17:22:19.125Z,26.20
2018-04-29T17:24:48.172Z,26.20
2018-04-29T17:27:17.103Z,26.10
2018-04-29T17:29:46.184Z,26.10
2018-04-29T17:32:15.040Z,26.00
2018-04-29T17:34:44.100Z,25.90
2018-04-29T17:37:14.062Z,25.90
2018-04-29T17:39:43.053Z,25.80
2018-04-29T17:42:11.985Z,25.80
2018-04-29T17:44:41.315Z,25.80
2018-04-29T17:47:10.995Z,25.70
2018-04-29T17:49:40.200Z,25.70
2018-04-29T17:52:10.327Z,25.60
2018-04-29T17:54:39.204Z,25.60
2018-04-29T17:57:08.167Z,25.60
2018-04-29T17:59:37.077Z,25.50
2018-04-29T18:02:06.392Z,25.50
2018-04-29T18:04:35.288Z,25.40
2018-04-29T18:07:05.083Z,25.40
2018-04-29T18:09:34.151Z,25.30
2018-04-29T18:12:03.067Z,25.30
2018-04-29T18:14:32.250Z,25.30
2018-04-29T18:17:01.637Z,25.20
2018-04-29T18:19:30.485Z,25.20
2018-04-29T18:22:00.201Z,25.10
2018-04-29T18:24:29.175Z,25.10
2018-04-29T18:26:58.844Z,25.00
2018-04-29T18:29:27.780Z,25.00
2018-04-29T18:31:57.830Z,25.00
2018-04-29T18:34:26.782Z,25.00
2018-04-29T18:36:55.744Z,25.00
2018-04-29T18:39:24.800Z,24.90
2018-04-29T18:41:53.748Z,24.90
2018-04-29T18:44:22.780Z,24.90
2018-04-29T18:46:51.741Z,24.80
2018-04-29T18:49:21.434Z,24.80
2018-04-29T18:51:52.022Z,24.80
2018-04-29T18:54:21.161Z,24.70
2018-04-29T18:56:50.056Z,24.70
2018-04-29T18:59:19.195Z,24.70
2018-04-29T19:01:48.092Z,24.50
2018-04-29T19:04:16.996Z,24.40
2018-04-29T19:06:45.985Z,24.20
2018-04-29T19:09:15.073Z,24.20
2018-04-29T19:11:44.025Z,24.20
2018-04-29T19:14:13.021Z,24.10
2018-04-29T19:16:41.914Z,23.90
2018-04-29T19:19:11.985Z,23.70
2018-04-29T19:21:40.864Z,23.70
2018-04-29T19:24:09.925Z,23.60
2018-04-29T19:26:39.496Z,23.50
2018-04-29T19:29:08.592Z,23.50
2018-04-29T19:31:38.067Z,23.40
2018-04-29T19:34:07.088Z,23.30
2018-04-29T19:36:36.071Z,23.30
2018-04-29T19:39:05.151Z,23.30
2018-04-29T19:41:34.412Z,23.40
2018-04-29T19:44:04.507Z,23.00
2018-04-29T19:46:33.441Z,23.00
2018-04-29T19:49:02.325Z,22.70
2018-04-29T19:51:31.519Z,22.80
2018-04-29T19:54:00.452Z,22.90
2018-04-29T19:56:29.474Z,22.60
2018-04-29T19:58:58.398Z,22.50
2018-04-29T20:01:27.457Z,22.40
2018-04-29T20:03:56.556Z,22.40
2018-04-29T20:06:25.920Z,22.30
2018-04-29T20:08:55.124Z,22.30
2018-04-29T20:11:24.017Z,22.40
2018-04-29T20:13:53.214Z,22.40
2018-04-29T20:16:22.186Z,22.30
2018-04-29T20:18:51.515Z,22.30
2018-04-29T20:21:20.915Z,22.40
2018-04-29T20:23:50.293Z,22.30
2018-04-29T20:26:19.252Z,22.30
2018-04-29T20:28:48.308Z,22.30
2018-04-29T20:31:17.582Z,22.50
2018-04-29T20:33:46.888Z,22.30
2018-04-29T20:36:16.156Z,22.30
2018-04-29T20:38:46.442Z,22.20
2018-04-29T20:41:16.940Z,22.20
2018-04-29T20:43:45.848Z,22.20
2018-04-29T20:46:14.813Z,22.10
2018-04-29T20:48:43.791Z,21.90
2018-04-29T20:51:12.907Z,21.80
2018-04-29T20:53:41.847Z,21.80
2018-04-29T20:56:11.861Z,21.90
2018-04-29T20:58:41.590Z,21.70
2018-04-29T21:01:10.600Z,21.70
2018-04-29T21:03:39.539Z,21.60
2018-04-29T21:06:08.621Z,21.30
2018-04-29T21:08:37.544Z,21.40
2018-04-29T21:11:06.496Z,21.30
2018-04-29T21:13:35.457Z,21.40
2018-04-29T21:16:04.327Z,21.40
2018-04-29T21:18:34.084Z,21.40
2018-04-29T21:21:03.001Z,21.40
2018-04-29T21:23:31.906Z,21.40
2018-04-29T21:26:01.612Z,21.40
2018-04-29T21:28:30.675Z,21.40
2018-04-29T21:30:59.570Z,21.40
2018-04-29T21:33:28.836Z,21.40
2018-04-29T21:35:57.718Z,21.30
2018-04-29T21:38:26.676Z,21.30
2018-04-29T21:40:55.778Z,21.30
2018-04-29T21:43:25.426Z,21.40
2018-04-29T21:45:54.312Z,21.30
2018-04-29T21:48:23.217Z,21.30
2018-04-29T21:50:52.292Z,21.20
2018-04-29T21:53:21.363Z,21.20
2018-04-29T21:55:51.089Z,21.00
2018-04-29T21:58:20.032Z,21.00
2018-04-29T22:00:49.041Z,20.90
2018-04-29T22:03:18.979Z,20.80
2018-04-29T22:05:47.952Z,20.80
2018-04-29T22:08:16.831Z,20.80
2018-04-29T22:10:45.712Z,20.80
2018-04-29T22:13:14.863Z,20.70
2018-04-29T22:15:43.831Z,20.70
2018-04-29T22:18:13.516Z,20.60
2018-04-29T22:20:43.390Z,20.60
2018-04-29T22:23:12.295Z,20.50
2018-04-29T22:25:41.408Z,20.30
2018-04-29T22:28:10.560Z,20.30
2018-04-29T22:30:39.660Z,20.40
2018-04-29T22:33:08.648Z,20.40
2018-04-29T22:35:37.703Z,20.40
2018-04-29T22:38:06.855Z,20.40
2018-04-29T22:40:35.999Z,20.40
2018-04-29T22:43:04.872Z,20.30
2018-04-29T22:45:33.843Z,20.20
2018-04-29T22:48:02.964Z,20.20
2018-04-29T22:50:32.009Z,20.20
2018-04-29T22:53:01.167Z,20.10
2018-04-29T22:55:30.311Z,19.90
2018-04-29T22:58:00.187Z,19.80
2018-04-29T23:00:29.472Z,19.90
2018-04-29T23:02:58.606Z,19.90
2018-04-29T23:05:27.819Z,19.90
2018-04-29T23:07:56.719Z,19.70
2018-04-29T23:10:26.817Z,19.70
2018-04-29T23:12:56.446Z,19.70
2018-04-29T23:15:25.672Z,19.70
2018-04-29T23:17:55.408Z,19.60
2018-04-29T23:20:25.051Z,19.50
2018-04-29T23:22:53.981Z,19.50
2018-04-29T23:25:23.011Z,19.40
2018-04-29T23:27:52.847Z,19.50
2018-04-29T23:30:21.837Z,19.50
2018-04-29T23:32:50.712Z,19.50
2018-04-29T23:35:19.640Z,19.40
2018-04-29T23:37:48.758Z,19.40
2018-04-29T23:40:17.672Z,19.30
2018-04-29T23:42:47.548Z,19.50
2018-04-29T23:45:16.466Z,19.50
2018-04-29T23:47:45.335Z,19.40
2018-04-29T23:50:14.463Z,19.40
2018-04-29T23:52:44.040Z,19.30
2018-04-29T23:55:13.027Z,19.20
2018-04-29T23:57:42.147Z,19.10
